Port Orford, Oregon
Current Conditions -  °F | °C
As of 9:56 AM on Friday 24 Oct 2014 (Local Time) from KBOK Reporting Station
Moderate Rain Moderate Rain  
Wind Chill: 55°   Ceiling: 2700
Heat Index: 55°   Visibility: 3mi
Dew Point: 54°   Wind: 8mph
Humidity: 97%   Direction: 100°E
Pressure: 29.85"   Gusts: 25mph
Location:  42.75°N, 124.5°W
Report Text: KBOK 241656Z AUTO 10007G22KT 050V220 3SM RA BR FEW001 BKN027 OVC035 13/12 A2985 RMK AO2 T01270122 BKN V SCT P0006 SLP108
Loading
Personal Weather Stations






























Interactive Weather Map
Tropical Storm Tracking
New forecast layout! Learn more

10-Day Weather Forecast

Advertisements
Track Severe Weather on mobile